Time;durP1;ratioP1;P1;durP2;ratioP2;P2;SDS_P1;SDS_P2;PMS_P1;PMS_P2;Temp;Humidity;BMP_temperature;BMP_pressure;BME280_temperature;BME280_humidity;BME280_pressure;Samples;Min_cycle;Max_cycle;Signal;HPM_P1;HPM_P2
2023/05/17 00:03:41;;;;;;;12.15;2.30;;;;;;;8.01;100.00;102240.84;10417162;28;20038;-70
2023/05/17 00:08:41;;;;;;;9.63;2.67;;;;;;;7.83;100.00;102239.50;10414614;28;20041;-70
2023/05/17 00:13:42;;;;;;;16.60;2.38;;;;;;;7.68;100.00;102246.97;10397453;28;20044;-70
2023/05/17 00:18:42;;;;;;;16.80;3.47;;;;;;;7.58;100.00;102258.28;10415863;28;20125;-69
2023/05/17 00:23:42;;;;;;;17.50;3.05;;;;;;;7.46;100.00;102248.94;10415578;28;20034;-70
2023/05/17 00:28:43;;;;;;;19.55;2.80;;;;;;;7.41;100.00;102255.03;10395085;28;20033;-70
2023/05/17 00:33:43;;;;;;;16.27;3.05;;;;;;;7.50;100.00;102257.59;10413650;28;20041;-70
2023/05/17 00:38:44;;;;;;;12.13;2.15;;;;;;;7.54;100.00;102261.66;10374135;28;20553;-70
2023/05/17 00:43:44;;;;;;;11.95;2.67;;;;;;;7.50;100.00;102258.44;10411818;28;20048;-72
2023/05/17 00:48:45;;;;;;;13.45;2.20;;;;;;;7.47;100.00;102256.97;10396928;28;20034;-71
2023/05/17 00:53:46;;;;;;;14.07;3.03;;;;;;;7.41;100.00;102257.75;10380481;28;20100;-70
2023/05/17 00:58:46;;;;;;;16.15;1.80;;;;;;;7.35;100.00;102255.81;10380272;28;20124;-70
2023/05/17 01:03:47;;;;;;;12.88;2.47;;;;;;;7.40;100.00;102260.69;10414754;28;20084;-70
2023/05/17 01:08:47;;;;;;;15.20;3.33;;;;;;;7.37;100.00;102261.94;10397337;28;20037;-70
2023/05/17 01:14:12;;;;;;;7.97;2.28;;;;;;;7.27;100.00;102269.66;10393940;28;20060;-70
2023/05/17 01:19:35;;;;;;;11.65;2.75;;;;;;;7.17;100.00;102261.81;10354163;28;20094;-70
2023/05/17 01:25:00;;;;;;;12.00;2.88;;;;;;;7.12;100.00;102269.75;10373066;28;20048;-70
2023/05/17 01:30:00;;;;;;;18.40;3.45;;;;;;;7.04;100.00;102257.03;10373026;28;20053;-70
2023/05/17 01:35:04;;;;;;;14.50;3.78;;;;;;;7.00;100.00;102263.09;10354859;28;20054;-70
2023/05/17 01:40:05;;;;;;;12.25;1.83;;;;;;;6.85;100.00;102257.72;10354613;28;20053;-70
2023/05/17 01:45:06;;;;;;;10.65;2.20;;;;;;;6.84;100.00;102256.88;10357682;28;20064;-70
2023/05/17 01:50:07;;;;;;;8.35;1.70;;;;;;;6.83;100.00;102268.84;10409803;28;20100;-70
2023/05/17 01:55:23;;;;;;;9.85;2.92;;;;;;;6.78;100.00;102267.72;10367622;28;20063;-70
2023/05/17 02:00:24;;;;;;;8.60;2.07;;;;;;;6.70;100.00;102270.59;10413569;28;20037;-70
2023/05/17 02:05:24;;;;;;;14.25;1.85;;;;;;;6.79;100.00;102283.97;10394976;28;20030;-70
2023/05/17 02:10:25;;;;;;;10.90;1.33;;;;;;;6.81;100.00;102283.78;10412043;28;20414;-70
2023/05/17 02:15:26;;;;;;;11.02;1.48;;;;;;;6.78;100.00;102284.16;10410948;28;20091;-70
2023/05/17 02:20:26;;;;;;;8.43;2.20;;;;;;;6.72;100.00;102295.88;10408914;28;20052;-70
2023/05/17 02:25:27;;;;;;;7.47;2.17;;;;;;;6.64;100.00;102294.97;10354520;28;20026;-70
2023/05/17 02:30:27;;;;;;;10.50;1.50;;;;;;;6.55;100.00;102304.34;10341444;28;20053;-70
2023/05/17 02:35:28;;;;;;;13.13;1.70;;;;;;;6.53;100.00;102305.56;10371073;28;20034;-70
2023/05/17 02:40:29;;;;;;;6.55;1.48;;;;;;;6.58;100.00;102311.31;10359498;28;20235;-71
2023/05/17 02:45:30;;;;;;;7.72;1.98;;;;;;;6.63;100.00;102314.31;10360870;28;20049;-71
2023/05/17 02:50:30;;;;;;;8.35;2.40;;;;;;;6.69;100.00;102326.38;10393823;28;20572;-71
2023/05/17 02:55:31;;;;;;;10.30;1.67;;;;;;;6.78;100.00;102325.22;10418063;28;20072;-70
2023/05/17 03:00:31;;;;;;;9.43;1.77;;;;;;;6.85;100.00;102329.72;10415315;28;20067;-70
2023/05/17 03:05:32;;;;;;;5.13;1.48;;;;;;;6.84;100.00;102336.25;10401564;28;20045;-71
2023/05/17 03:10:33;;;;;;;9.18;1.70;;;;;;;6.82;100.00;102330.13;10400853;28;20037;-71
2023/05/17 03:15:33;;;;;;;7.97;2.33;;;;;;;6.70;100.00;102322.59;10413988;28;20045;-71
2023/05/17 03:20:34;;;;;;;10.18;1.67;;;;;;;6.81;100.00;102333.88;10418175;28;20443;-70
2023/05/17 03:25:34;;;;;;;4.32;1.50;;;;;;;6.86;100.00;102336.03;10418813;28;20037;-70
2023/05/17 03:30:35;;;;;;;7.60;1.08;;;;;;;7.03;100.00;102350.34;10418042;28;20033;-71
2023/05/17 03:35:35;;;;;;;8.70;1.35;;;;;;;7.02;100.00;102344.00;10399788;28;20037;-71
2023/05/17 03:40:36;;;;;;;11.00;2.00;;;;;;;7.03;100.00;102353.09;10415273;28;20041;-72
2023/05/17 03:45:36;;;;;;;6.75;0.88;;;;;;;6.99;100.00;102335.34;10416261;28;20478;-71
2023/05/17 03:50:39;;;;;;;10.63;1.20;;;;;;;7.19;100.00;102351.97;10415597;28;20041;-71
2023/05/17 03:55:40;;;;;;;6.45;1.02;;;;;;;7.20;100.00;102350.94;10399941;28;20087;-71
2023/05/17 04:00:40;;;;;;;5.80;1.60;;;;;;;7.35;100.00;102357.19;10398661;28;20029;-70
2023/05/17 04:05:41;;;;;;;12.20;1.35;;;;;;;7.39;100.00;102360.38;10382309;28;20049;-71
2023/05/17 04:10:42;;;;;;;9.80;0.70;;;;;;;7.43;100.00;102367.16;10414751;28;20076;-71
2023/05/17 04:15:42;;;;;;;6.05;1.25;;;;;;;7.61;100.00;102373.03;10380900;28;20228;-72
2023/05/17 04:20:43;;;;;;;8.05;1.90;;;;;;;7.71;100.00;102389.16;10381440;28;20144;-71
2023/05/17 04:25:43;;;;;;;4.63;1.60;;;;;;;7.78;100.00;102395.50;10416178;28;20053;-70
2023/05/17 04:30:45;;;;;;;8.15;1.67;;;;;;;7.75;100.00;102392.31;10398193;28;20026;-71
2023/05/17 04:35:45;;;;;;;9.75;0.90;;;;;;;7.81;100.00;102397.88;10414115;28;20105;-71
2023/05/17 04:40:46;;;;;;;4.68;1.33;;;;;;;7.89;100.00;102408.66;10413334;28;20585;-71
2023/05/17 04:45:46;;;;;;;7.57;1.23;;;;;;;8.02;100.00;102407.06;10413936;28;20034;-71
2023/05/17 04:50:47;;;;;;;6.63;1.95;;;;;;;8.12;100.00;102415.81;10413944;28;20034;-70
2023/05/17 04:55:47;;;;;;;5.20;0.77;;;;;;;8.16;100.00;102419.00;10415596;28;20049;-71
2023/05/17 05:00:48;;;;;;;5.20;1.38;;;;;;;8.23;100.00;102439.97;10413834;28;20037;-71
2023/05/17 05:05:48;;;;;;;7.20;1.83;;;;;;;8.31;100.00;102451.81;10410049;28;20060;-71
2023/05/17 05:10:50;;;;;;;7.78;1.48;;;;;;;8.34;100.00;102465.16;10337473;28;20077;-71
2023/05/17 05:15:51;;;;;;;7.82;2.03;;;;;;;8.24;100.00;102460.84;10372559;28;20065;-71
2023/05/17 05:20:51;;;;;;;5.85;1.65;;;;;;;8.24;100.00;102477.31;10373312;28;20449;-71
2023/05/17 05:25:52;;;;;;;9.20;1.20;;;;;;;8.25;100.00;102478.19;10372944;28;20507;-70
2023/05/17 05:30:59;;;;;;;3.83;0.95;;;;;;;8.34;100.00;102476.13;10361319;28;20037;-71
2023/05/17 05:35:59;;;;;;;7.75;1.55;;;;;;;8.40;100.00;102478.91;10339128;28;20077;-70
2023/05/17 05:41:00;;;;;;;7.20;1.55;;;;;;;8.48;100.00;102488.91;10353549;28;20062;-71
2023/05/17 05:46:00;;;;;;;6.63;1.13;;;;;;;8.56;100.00;102494.25;10337827;28;20045;-71
2023/05/17 05:51:01;;;;;;;6.07;1.48;;;;;;;8.64;100.00;102488.59;10400277;28;20037;-71
2023/05/17 05:56:02;;;;;;;7.70;1.17;;;;;;;8.66;100.00;102497.50;10409002;28;20037;-71
2023/05/17 06:01:02;;;;;;;7.82;1.02;;;;;;;8.72;100.00;102508.69;10409526;28;20137;-72
2023/05/17 06:06:03;;;;;;;6.20;1.45;;;;;;;8.66;100.00;102513.09;10412397;28;20042;-72
2023/05/17 06:11:03;;;;;;;8.13;1.10;;;;;;;8.76;100.00;102501.75;10411656;28;20064;-71
2023/05/17 06:16:05;;;;;;;5.93;0.93;;;;;;;8.66;100.00;102507.59;10402729;28;20037;-71
2023/05/17 06:21:05;;;;;;;9.10;1.17;;;;;;;8.59;100.00;102495.75;10421427;28;20091;-71
2023/05/17 06:26:09;;;;;;;9.30;1.27;;;;;;;8.99;100.00;102521.56;10421162;28;20057;-71
2023/05/17 06:31:09;;;;;;;6.78;1.38;;;;;;;9.18;100.00;102532.84;10419019;28;20048;-71
2023/05/17 06:36:10;;;;;;;8.35;1.35;;;;;;;9.22;100.00;102520.34;10400702;28;20048;-72
2023/05/17 06:41:10;;;;;;;10.23;1.85;;;;;;;9.27;100.00;102534.34;10418962;28;20094;-71
2023/05/17 06:46:11;;;;;;;8.25;1.30;;;;;;;9.45;100.00;102556.63;10418628;28;20025;-71
2023/05/17 06:51:11;;;;;;;10.27;1.00;;;;;;;9.33;100.00;102558.28;10402794;28;20041;-71
2023/05/17 06:56:13;;;;;;;14.27;4.13;;;;;;;9.20;100.00;102569.19;10419113;28;20477;-71
2023/05/17 07:01:14;;;;;;;7.03;1.20;;;;;;;9.13;100.00;102576.56;10418544;28;20102;-70
2023/05/17 07:06:15;;;;;;;6.95;1.40;;;;;;;9.26;100.00;102585.72;10417661;28;20064;-71
2023/05/17 07:11:15;;;;;;;7.60;2.08;;;;;;;9.35;100.00;102571.81;10416600;28;20497;-71
2023/05/17 07:16:15;;;;;;;10.05;1.33;;;;;;;10.02;100.00;102597.63;10401535;28;20030;-69
2023/05/17 07:21:16;;;;;;;7.15;1.30;;;;;;;10.46;100.00;102579.72;10419813;28;20042;-71
2023/05/17 07:26:18;;;;;;;7.75;1.48;;;;;;;10.58;100.00;102583.50;10416754;28;20051;-71
2023/05/17 07:31:18;;;;;;;5.80;1.17;;;;;;;10.85;100.00;102576.06;10417292;28;20083;-71
2023/05/17 07:36:19;;;;;;;8.57;0.90;;;;;;;10.81;100.00;102566.53;10415617;28;20046;-72
2023/05/17 07:41:22;;;;;;;5.43;0.82;;;;;;;10.76;100.00;102579.25;10414301;28;20048;-71
2023/05/17 07:46:22;;;;;;;8.82;1.67;;;;;;;10.65;100.00;102597.28;10416710;28;20045;-72
2023/05/17 07:51:22;;;;;;;8.32;1.45;;;;;;;10.66;100.00;102613.56;10398879;28;20383;-72
2023/05/17 07:56:23;;;;;;;5.13;1.10;;;;;;;10.63;100.00;102605.75;10416183;28;20504;-70
2023/05/17 08:01:23;;;;;;;6.30;0.90;;;;;;;10.96;100.00;102612.31;10415222;28;20075;-72
2023/05/17 08:06:24;;;;;;;8.50;1.23;;;;;;;11.05;100.00;102602.75;10397452;28;20567;-72
2023/05/17 08:11:24;;;;;;;11.77;1.35;;;;;;;11.14;99.94;102617.13;10397088;28;20264;-71
2023/05/17 08:16:25;;;;;;;10.00;0.80;;;;;;;11.06;98.02;102619.06;10414531;28;20038;-71
2023/05/17 08:21:25;;;;;;;4.82;0.73;;;;;;;11.05;98.94;102627.53;10379738;28;20033;-72
2023/05/17 08:26:26;;;;;;;6.57;0.77;;;;;;;10.90;95.12;102592.78;10415012;28;20470;-67
2023/05/17 08:31:27;;;;;;;8.60;1.02;;;;;;;11.37;93.45;102620.28;10397474;28;20048;-71
2023/05/17 08:36:27;;;;;;;6.90;1.23;;;;;;;11.47;93.12;102615.13;10395817;28;20041;-71
2023/05/17 08:41:28;;;;;;;6.85;0.90;;;;;;;11.47;95.03;102622.53;10394307;28;20038;-71
2023/05/17 08:46:30;;;;;;;10.25;1.15;;;;;;;11.35;93.14;102589.31;10390749;28;20041;-70
2023/05/17 08:51:30;;;;;;;6.07;0.80;;;;;;;11.78;90.17;102616.28;10383421;28;20038;-70
2023/05/17 08:56:31;;;;;;;6.65;0.93;;;;;;;12.05;92.13;102629.94;10395938;28;20026;-70
2023/05/17 09:01:32;;;;;;;9.68;1.40;;;;;;;12.08;87.25;102626.75;10414844;28;20044;-70
2023/05/17 09:06:32;;;;;;;4.47;1.33;;;;;;;11.77;89.95;102617.34;10363229;28;20040;-70
2023/05/17 09:11:33;;;;;;;4.97;0.77;;;;;;;11.64;88.58;102645.00;10362004;28;20045;-69
2023/05/17 09:16:35;;;;;;;5.60;0.70;;;;;;;11.22;88.97;102659.09;10403111;28;20038;-70
2023/05/17 09:21:35;;;;;;;5.25;1.10;;;;;;;11.42;91.46;102666.50;10379199;28;20037;-70
2023/05/17 09:26:43;;;;;;;6.72;1.30;;;;;;;11.67;90.27;102655.59;10401464;28;20041;-70
2023/05/17 09:31:43;;;;;;;3.33;0.70;;;;;;;11.98;90.22;102659.53;10395723;28;20037;-70
2023/05/17 09:36:44;;;;;;;6.38;0.80;;;;;;;11.76;88.42;102637.72;10376496;28;20034;-71
2023/05/17 09:41:46;;;;;;;5.00;0.85;;;;;;;11.68;89.87;102665.56;10395973;28;20041;-70
2023/05/17 09:46:47;;;;;;;7.85;1.10;;;;;;;11.91;94.05;102671.44;10393802;28;20061;-71
2023/05/17 09:51:48;;;;;;;8.52;0.90;;;;;;;11.83;95.51;102690.97;10394829;28;20033;-71
2023/05/17 09:56:54;;;;;;;2.78;0.93;;;;;;;12.50;95.14;102693.41;10394954;28;20116;-71
2023/05/17 10:01:55;;;;;;;5.63;1.23;;;;;;;12.75;94.00;102684.28;10400268;28;20518;-70
2023/05/17 10:06:55;;;;;;;11.30;2.28;;;;;;;12.76;90.46;102672.19;10364659;28;20042;-71
2023/05/17 10:11:56;;;;;;;5.90;2.40;;;;;;;12.69;91.78;102684.13;10352062;28;20052;-71
2023/05/17 10:16:57;;;;;;;4.97;0.80;;;;;;;12.40;90.25;102680.09;10370127;28;20057;-72
2023/05/17 10:21:57;;;;;;;4.50;0.95;;;;;;;12.87;90.63;102675.03;10377735;28;20131;-73
2023/05/17 10:26:58;;;;;;;4.05;0.77;;;;;;;13.30;86.46;102656.81;10378006;28;20068;-72
2023/05/17 10:31:58;;;;;;;7.03;1.13;;;;;;;13.24;83.20;102649.41;10378364;28;20036;-72
2023/05/17 10:36:59;;;;;;;4.70;0.70;;;;;;;13.23;83.78;102672.59;10377174;28;20042;-72
2023/05/17 10:42:05;;;;;;;10.07;1.65;;;;;;;12.74;88.61;102690.91;10411398;28;20061;-71
2023/05/17 10:47:06;;;;;;;3.83;0.77;;;;;;;12.66;91.80;102681.81;10412915;28;20040;-71
2023/05/17 10:52:17;;;;;;;5.25;0.80;;;;;;;12.89;88.66;102694.19;10376970;28;20057;-71
2023/05/17 10:57:33;;;;;;;5.22;1.17;;;;;;;12.78;89.46;102698.53;10375262;28;20041;-72
2023/05/17 11:02:34;;;;;;;4.70;1.60;;;;;;;12.07;92.34;102716.16;10419203;28;20033;-71
2023/05/17 11:07:36;;;;;;;6.20;0.90;;;;;;;11.66;94.77;102712.69;10398419;28;20136;-73
2023/05/17 11:12:38;;;;;;;10.75;1.27;;;;;;;11.65;95.81;102722.00;10406206;28;20061;-72
2023/05/17 11:17:41;;;;;;;4.90;1.02;;;;;;;11.64;97.23;102725.00;10383383;28;20064;-72
2023/05/17 11:22:49;;;;;;;5.38;0.80;;;;;;;11.76;95.91;102712.25;10417786;28;20049;-73
2023/05/17 11:27:51;;;;;;;5.30;0.73;;;;;;;12.44;95.00;102713.63;10418490;28;20109;-72
2023/05/17 11:32:52;;;;;;;2.92;0.75;;;;;;;13.05;90.43;102671.50;10394836;28;20037;-72
2023/05/17 11:38:17;;;;;;;3.92;0.88;;;;;;;13.44;86.17;102685.19;10382229;28;20105;-71
2023/05/17 11:43:22;;;;;;;2.85;0.90;;;;;;;13.58;80.47;102675.66;10396181;28;20045;-75
2023/05/17 11:48:24;;;;;;;2.63;0.90;;;;;;;13.57;76.94;102662.06;10399393;28;20044;-71
2023/05/17 11:53:26;;;;;;;3.47;1.00;;;;;;;13.25;77.57;102656.59;10416280;28;20037;-72
2023/05/17 11:58:26;;;;;;;3.58;0.93;;;;;;;13.70;79.71;102681.25;10396537;28;20470;-73
2023/05/17 12:03:30;;;;;;;5.40;1.02;;;;;;;14.18;82.38;102685.97;10417119;28;20064;-71
2023/05/17 12:08:34;;;;;;;6.07;1.40;;;;;;;13.96;85.29;102702.25;10398038;28;20033;-71
2023/05/17 12:13:34;;;;;;;7.07;1.27;;;;;;;14.25;84.96;102700.56;10415871;28;20501;-71
2023/05/17 12:18:39;;;;;;;5.85;1.05;;;;;;;14.28;81.66;102691.81;10416504;28;20056;-72
2023/05/17 12:23:44;;;;;;;7.95;2.15;;;;;;;14.41;81.22;102695.47;10399205;28;20036;-71
2023/05/17 12:28:56;;;;;;;4.43;1.42;;;;;;;14.82;77.33;102669.69;10382269;28;20034;-71
2023/05/17 12:33:58;;;;;;;5.50;0.95;;;;;;;14.86;78.26;102676.44;10399392;28;20045;-71
2023/05/17 12:38:58;;;;;;;11.65;1.73;;;;;;;15.00;74.77;102665.94;10380129;28;20645;-71
2023/05/17 12:43:58;;;;;;;3.00;1.17;;;;;;;14.66;76.38;102671.22;10379052;28;20037;-70
2023/05/17 12:49:07;;;;;;;4.43;1.15;;;;;;;14.40;79.64;102677.97;10380720;28;20157;-71
2023/05/17 12:54:07;;;;;;;5.60;1.40;;;;;;;14.54;80.49;102675.84;10415226;28;20117;-72
2023/05/17 12:59:19;;;;;;;3.97;1.35;;;;;;;14.76;73.88;102667.00;10415124;28;20034;-71
2023/05/17 13:04:20;;;;;;;5.88;1.60;;;;;;;14.55;72.87;102663.66;10398936;28;20033;-74
2023/05/17 13:09:22;;;;;;;3.03;1.00;;;;;;;15.07;73.85;102666.69;10359310;28;20053;-71
2023/05/17 13:14:38;;;;;;;8.05;1.25;;;;;;;16.05;69.41;102643.81;10356229;28;20520;-71
2023/05/17 13:19:39;;;;;;;8.00;1.33;;;;;;;15.02;75.01;102662.94;10373075;28;20040;-71
2023/05/17 13:24:40;;;;;;;4.60;0.95;;;;;;;14.88;74.18;102654.00;10372001;28;20034;-72
2023/05/17 13:29:41;;;;;;;8.32;1.50;;;;;;;14.69;74.70;102678.19;10386007;28;20038;-72
2023/05/17 13:34:42;;;;;;;5.60;1.13;;;;;;;15.13;75.57;102674.03;10409262;28;20064;-72
2023/05/17 13:39:42;;;;;;;3.50;1.15;;;;;;;14.25;77.92;102700.56;10393019;28;20038;-71
2023/05/17 13:44:43;;;;;;;7.53;0.90;;;;;;;14.05;82.30;102703.59;10393788;28;20061;-71
2023/05/17 13:49:43;;;;;;;9.25;1.65;;;;;;;14.38;80.41;102693.16;10410174;28;20029;-72
2023/05/17 13:54:44;;;;;;;3.35;1.00;;;;;;;16.23;77.99;102676.13;10378851;28;20037;-71
2023/05/17 13:59:44;;;;;;;6.82;0.80;;;;;;;16.18;77.40;102682.41;10413577;28;20044;-71
2023/05/17 14:04:45;;;;;;;6.10;1.25;;;;;;;16.62;76.75;102682.69;10393956;28;20040;-73
2023/05/17 14:09:45;;;;;;;5.25;0.98;;;;;;;15.50;75.47;102634.03;10394263;28;20049;-70
2023/05/17 14:14:45;;;;;;;4.38;0.82;;;;;;;14.95;76.57;102685.25;10362788;28;20084;-72
2023/05/17 14:19:46;;;;;;;7.72;0.93;;;;;;;14.85;77.19;102690.53;10370392;28;20045;-71
2023/05/17 14:24:46;;;;;;;4.60;0.88;;;;;;;14.30;77.72;102697.97;10354140;28;20069;-72
2023/05/17 14:29:47;;;;;;;5.15;1.17;;;;;;;14.00;78.36;102716.47;10354685;28;20034;-72
2023/05/17 14:34:47;;;;;;;8.18;0.82;;;;;;;13.99;76.65;102692.63;10374894;28;20042;-72
2023/05/17 14:39:48;;;;;;;4.47;0.93;;;;;;;15.28;77.00;102683.81;10385442;28;20038;-72
2023/05/17 14:44:48;;;;;;;4.32;0.90;;;;;;;17.22;70.23;102664.50;10415654;28;20069;-72
2023/05/17 14:49:49;;;;;;;6.40;1.17;;;;;;;16.43;68.10;102667.31;10419134;28;20045;-69
2023/05/17 14:54:50;;;;;;;4.43;0.70;;;;;;;15.40;72.64;102681.88;10417639;28;20052;-66
2023/05/17 14:59:51;;;;;;;4.97;1.38;;;;;;;14.68;76.30;102702.31;10420117;28;20064;-69
2023/05/17 15:04:51;;;;;;;8.63;1.05;;;;;;;13.98;78.46;102713.09;10417495;28;20105;-70
2023/05/17 15:09:52;;;;;;;6.13;1.10;;;;;;;14.00;82.85;102728.38;10416955;28;20041;-69
2023/05/17 15:14:52;;;;;;;5.70;0.95;;;;;;;13.98;82.24;102718.63;10417112;28;20041;-69
2023/05/17 15:19:53;;;;;;;4.68;0.80;;;;;;;13.53;83.55;102720.59;10414684;28;20050;-68
2023/05/17 15:24:54;;;;;;;5.78;1.10;;;;;;;13.43;83.15;102717.53;10416972;28;20049;-68
2023/05/17 15:29:54;;;;;;;5.32;1.20;;;;;;;13.11;84.71;102709.28;10417163;28;20048;-70
2023/05/17 15:34:55;;;;;;;5.20;0.73;;;;;;;12.90;84.47;102720.75;10399463;28;20047;-68
2023/05/17 15:39:55;;;;;;;5.43;0.82;;;;;;;12.64;85.21;102725.41;10416197;28;20038;-69
2023/05/17 15:44:56;;;;;;;4.50;1.15;;;;;;;12.75;85.70;102714.69;10415940;28;20048;-69
2023/05/17 15:49:57;;;;;;;7.80;1.20;;;;;;;12.62;84.47;102710.97;10417233;28;20033;-69
2023/05/17 15:54:57;;;;;;;5.10;0.63;;;;;;;12.53;83.69;102717.84;10418936;28;20042;-69
2023/05/17 15:59:58;;;;;;;2.45;0.68;;;;;;;12.83;84.59;102718.03;10418001;28;20099;-69
2023/05/17 16:04:58;;;;;;;5.25;0.80;;;;;;;13.43;80.13;102713.91;10417319;28;20033;-69
2023/05/17 16:09:59;;;;;;;1.95;0.55;;;;;;;13.16;77.92;102697.53;10415814;28;20087;-69
2023/05/17 16:14:59;;;;;;;3.15;0.50;;;;;;;12.79;80.44;102713.19;10414178;28;20053;-69
2023/05/17 16:20:00;;;;;;;3.47;0.90;;;;;;;12.47;81.31;102730.63;10396867;28;20080;-71
2023/05/17 16:25:00;;;;;;;6.68;0.70;;;;;;;11.83;83.86;102729.59;10405979;28;20048;-69
2023/05/17 16:30:01;;;;;;;2.92;0.90;;;;;;;11.88;84.46;102727.06;10417254;28;20045;-70
2023/05/17 16:35:02;;;;;;;5.80;1.10;;;;;;;11.82;85.32;102741.69;10416529;28;20052;-69
2023/05/17 16:40:02;;;;;;;6.18;1.58;;;;;;;11.59;89.60;102750.47;10415212;28;20095;-67
2023/05/17 16:45:03;;;;;;;6.00;0.85;;;;;;;11.34;91.18;102744.78;10393339;28;20037;-69
2023/05/17 16:50:04;;;;;;;8.45;0.80;;;;;;;11.45;93.08;102757.06;10375857;28;20034;-70
2023/05/17 16:55:05;;;;;;;5.15;1.10;;;;;;;11.44;92.04;102764.50;10397011;28;20026;-69
2023/05/17 17:00:07;;;;;;;2.88;1.15;;;;;;;11.31;89.52;102756.25;10396129;28;20041;-70
2023/05/17 17:05:09;;;;;;;8.13;1.40;;;;;;;11.33;89.95;102756.88;10402381;28;20090;-69
2023/05/17 17:10:09;;;;;;;4.47;1.40;;;;;;;11.34;89.96;102758.56;10412801;28;20433;-70
2023/05/17 17:15:10;;;;;;;6.13;1.10;;;;;;;11.25;91.39;102762.59;10395102;28;20025;-70
2023/05/17 17:20:11;;;;;;;5.05;0.88;;;;;;;11.25;91.99;102765.38;10379054;28;20041;-70
2023/05/17 17:25:12;;;;;;;4.20;1.05;;;;;;;10.98;89.42;102765.34;10411887;28;20107;-69
2023/05/17 17:30:12;;;;;;;6.57;1.17;;;;;;;10.82;91.67;102765.75;10378203;28;20033;-70
2023/05/17 17:35:13;;;;;;;6.85;1.30;;;;;;;10.83;90.42;102759.19;10346191;28;20049;-68
2023/05/17 17:40:13;;;;;;;3.78;0.90;;;;;;;10.70;88.64;102741.56;10411945;28;20033;-69
2023/05/17 17:45:14;;;;;;;6.70;1.25;;;;;;;10.76;91.26;102772.09;10394254;28;20044;-70
2023/05/17 17:50:15;;;;;;;4.22;1.05;;;;;;;10.70;92.06;102769.13;10401618;28;20040;-69
2023/05/17 17:55:15;;;;;;;10.70;1.75;;;;;;;10.55;91.38;102771.22;10393851;28;20033;-70
2023/05/17 18:00:16;;;;;;;9.55;1.05;;;;;;;10.44;92.67;102775.44;10410974;28;20049;-70
2023/05/17 18:05:17;;;;;;;3.55;1.08;;;;;;;10.52;94.11;102776.28;10392948;28;20080;-69
2023/05/17 18:10:17;;;;;;;5.10;0.90;;;;;;;10.52;93.99;102777.13;10384853;28;20054;-69
2023/05/17 18:15:18;;;;;;;6.07;1.85;;;;;;;10.47;97.73;102787.94;10421115;28;20041;-69
2023/05/17 18:20:20;;;;;;;6.70;1.17;;;;;;;10.28;96.46;102792.28;10421569;28;20037;-69
2023/05/17 18:25:21;;;;;;;10.32;1.60;;;;;;;10.14;98.35;102799.63;10423860;28;20025;-70
2023/05/17 18:30:22;;;;;;;2.30;0.80;;;;;;;10.09;99.36;102802.16;10425134;28;20044;-70
2023/05/17 18:35:22;;;;;;;7.10;1.40;;;;;;;9.96;98.28;102793.81;10424974;28;20082;-69
2023/05/17 18:40:24;;;;;;;5.07;1.15;;;;;;;9.91;97.23;102808.19;10407174;28;20041;-69
2023/05/17 18:45:25;;;;;;;5.93;1.25;;;;;;;9.74;98.66;102802.16;10406919;28;20549;-69
2023/05/17 18:50:25;;;;;;;6.63;0.88;;;;;;;9.66;98.19;102808.66;10406978;28;20033;-69
2023/05/17 18:55:26;;;;;;;6.05;1.05;;;;;;;9.67;100.00;102820.50;10425111;28;20093;-69
2023/05/17 19:00:27;;;;;;;3.53;1.00;;;;;;;9.62;99.71;102815.59;10424010;28;20045;-69
2023/05/17 19:05:27;;;;;;;6.88;2.22;;;;;;;9.37;95.90;102798.69;10390970;28;20038;-69
2023/05/17 19:10:28;;;;;;;5.57;1.20;;;;;;;9.46;99.58;102822.25;10406425;28;20041;-69
2023/05/17 19:15:28;;;;;;;6.00;1.25;;;;;;;9.38;100.00;102819.63;10423790;28;20037;-69
2023/05/17 19:20:29;;;;;;;3.92;1.13;;;;;;;9.32;100.00;102820.44;10422111;28;20061;-69
2023/05/17 19:25:30;;;;;;;7.43;1.10;;;;;;;9.29;100.00;102829.09;10399795;28;20041;-69
2023/05/17 19:30:30;;;;;;;4.65;1.13;;;;;;;9.20;100.00;102828.38;10417346;28;20033;-70
2023/05/17 19:35:31;;;;;;;4.55;1.00;;;;;;;9.19;100.00;102837.66;10399508;28;20072;-69
2023/05/17 19:40:31;;;;;;;9.85;1.27;;;;;;;9.20;100.00;102841.25;10416071;28;20064;-69
2023/05/17 19:45:32;;;;;;;8.07;1.33;;;;;;;9.15;100.00;102839.09;10398525;28;20101;-69
2023/05/17 19:50:35;;;;;;;5.40;1.00;;;;;;;9.16;100.00;102848.22;10397085;28;20030;-69
2023/05/17 19:55:38;;;;;;;5.57;1.40;;;;;;;9.15;100.00;102830.00;10398847;28;20038;-69
2023/05/17 20:00:38;;;;;;;8.00;1.40;;;;;;;9.11;100.00;102823.19;10397920;28;20067;-70
2023/05/17 20:05:38;;;;;;;8.13;1.23;;;;;;;9.08;100.00;102824.47;10416274;28;20080;-69
2023/05/17 20:10:39;;;;;;;11.30;1.17;;;;;;;9.00;100.00;102819.09;10415181;28;20453;-70
2023/05/17 20:15:40;;;;;;;12.48;2.17;;;;;;;9.02;100.00;102823.34;10380627;28;20140;-66
2023/05/17 20:20:41;;;;;;;4.65;1.00;;;;;;;8.92;100.00;102811.81;10415563;28;20474;-69
2023/05/17 20:25:41;;;;;;;5.13;1.02;;;;;;;8.99;100.00;102831.97;10393328;28;20037;-69
2023/05/17 20:30:42;;;;;;;6.80;1.48;;;;;;;8.93;100.00;102832.75;10412651;28;20038;-70
2023/05/17 20:35:43;;;;;;;6.85;1.30;;;;;;;8.87;100.00;102822.56;10413861;28;20041;-70
2023/05/17 20:40:43;;;;;;;6.18;1.17;;;;;;;8.81;100.00;102824.19;10401562;28;20083;-69
2023/05/17 20:45:44;;;;;;;8.35;1.40;;;;;;;8.90;100.00;102844.13;10369345;28;20037;-69
2023/05/17 20:50:46;;;;;;;8.32;1.58;;;;;;;8.83;100.00;102838.56;10356598;28;20045;-69
2023/05/17 20:55:48;;;;;;;8.20;1.55;;;;;;;8.80;100.00;102835.34;10414252;28;20053;-69
2023/05/17 21:00:48;;;;;;;5.47;1.60;;;;;;;8.68;100.00;102830.38;10408811;28;20041;-69
2023/05/17 21:05:55;;;;;;;7.88;1.20;;;;;;;8.69;100.00;102843.06;10376975;28;20412;-70
2023/05/17 21:10:55;;;;;;;;;;;;;;;8.62;100.00;102838.53;10384144;28;20053;-71
2023/05/17 21:15:56;;;;;;;4.13;0.90;;;;;;;8.53;100.00;102837.78;10407922;28;20369;-70
2023/05/17 21:20:56;;;;;;;4.85;1.58;;;;;;;8.45;100.00;102830.53;10412881;28;20064;-67
2023/05/17 21:25:57;;;;;;;6.95;1.88;;;;;;;8.41;100.00;102828.34;10411678;28;20060;-69
2023/05/17 21:30:57;;;;;;;3.78;1.67;;;;;;;8.40;100.00;102818.41;10411501;28;20038;-69
2023/05/17 21:35:58;;;;;;;9.02;1.40;;;;;;;8.34;100.00;102816.41;10393469;28;20045;-69
2023/05/17 21:40:58;;;;;;;7.00;1.88;;;;;;;8.41;100.00;102831.09;10380673;28;20058;-70
2023/05/17 21:45:59;;;;;;;5.35;1.17;;;;;;;8.36;100.00;102823.41;10393216;28;20037;-69
2023/05/17 21:50:59;;;;;;;4.00;1.42;;;;;;;8.36;100.00;102828.91;10379970;28;20401;-69
2023/05/17 21:56:00;;;;;;;7.18;2.00;;;;;;;8.41;100.00;102839.31;10411054;28;20241;-70
2023/05/17 22:01:01;;;;;;;6.00;1.30;;;;;;;8.39;100.00;102839.50;10409922;28;20045;-68
2023/05/17 22:06:01;;;;;;;8.30;1.63;;;;;;;8.39;100.00;102831.28;10410975;28;20050;-66
2023/05/17 22:11:02;;;;;;;4.32;1.40;;;;;;;8.39;100.00;102838.63;10409549;28;20034;-69
2023/05/17 22:16:03;;;;;;;5.63;1.02;;;;;;;8.33;100.00;102836.66;10401659;28;20061;-69
2023/05/17 22:21:03;;;;;;;5.63;1.90;;;;;;;8.31;100.00;102838.75;10410633;28;20041;-69
2023/05/17 22:26:04;;;;;;;12.68;1.58;;;;;;;8.23;100.00;102832.31;10393671;28;20096;-69
2023/05/17 22:31:06;;;;;;;7.55;1.50;;;;;;;8.23;100.00;102840.56;10376287;28;20136;-69
2023/05/17 22:36:12;;;;;;;9.93;1.77;;;;;;;8.23;100.00;102829.59;10410612;28;20482;-69
2023/05/17 22:41:13;;;;;;;7.28;1.27;;;;;;;8.13;100.00;102825.44;10410164;28;20051;-69
2023/05/17 22:46:14;;;;;;;5.03;1.33;;;;;;;8.03;100.00;102829.31;10410324;28;20033;-68
2023/05/17 22:51:17;;;;;;;6.15;1.50;;;;;;;8.00;100.00;102846.16;10393970;28;20454;-69
2023/05/17 22:56:17;;;;;;;9.00;1.20;;;;;;;8.02;100.00;102854.16;10397760;28;20048;-69
2023/05/17 23:01:18;;;;;;;6.90;1.60;;;;;;;7.93;100.00;102847.09;10418918;28;20397;-69
2023/05/17 23:06:20;;;;;;;13.82;1.50;;;;;;;7.86;100.00;102849.75;10400218;28;20682;-69